Time;durP1;ratioP1;P1;durP2;ratioP2;P2;SDS_P1;SDS_P2;PMS_P1;PMS_P2;Temp;Humidity;BMP_temperature;BMP_pressure;BME280_temperature;BME280_humidity;BME280_pressure;Samples;Min_cycle;Max_cycle;Signal;HPM_P1;HPM_P2
2023/01/28 00:01:39;;;;;;;1.17;1.08;;;5.30;83.70;;;;;;5036831;28;20040;-66
2023/01/28 00:04:04;;;;;;;1.25;1.10;;;5.30;83.70;;;;;;5029649;28;20021;-67
2023/01/28 00:06:30;;;;;;;1.00;0.90;;;5.30;83.60;;;;;;5033241;28;20021;-68
2023/01/28 00:08:56;;;;;;;1.52;1.13;;;5.40;83.60;;;;;;5032887;28;20026;-68
2023/01/28 00:11:21;;;;;;;1.73;1.10;;;5.40;83.50;;;;;;5032988;28;20472;-67
2023/01/28 00:13:54;;;;;;;0.80;0.80;;;5.40;83.40;;;;;;5033320;28;20030;-65
2023/01/28 00:16:21;;;;;;;1.15;1.00;;;5.40;83.40;;;;;;5041102;28;20381;-66
2023/01/28 00:18:47;;;;;;;0.80;0.73;;;5.40;83.30;;;;;;5031732;28;20029;-68
2023/01/28 00:21:14;;;;;;;1.38;1.00;;;5.40;83.20;;;;;;5034816;28;21381;-67
2023/01/28 00:23:42;;;;;;;1.00;0.90;;;5.40;83.30;;;;;;5029833;28;20035;-66
2023/01/28 00:26:12;;;;;;;1.38;1.17;;;5.40;83.30;;;;;;5033212;28;20021;-67
2023/01/28 00:28:38;;;;;;;0.98;0.88;;;5.40;83.40;;;;;;5031693;28;20482;-65
2023/01/28 00:31:08;;;;;;;0.80;0.77;;;5.40;83.40;;;;;;5032089;28;20089;-67
2023/01/28 00:33:34;;;;;;;1.20;1.10;;;5.40;83.30;;;;;;5026306;28;20121;-64
2023/01/28 00:36:01;;;;;;;1.10;1.00;;;5.40;83.40;;;;;;5026872;28;20021;-65
2023/01/28 00:38:30;;;;;;;1.20;1.10;;;5.40;83.40;;;;;;5025113;28;20036;-67
2023/01/28 00:41:05;;;;;;;1.20;1.10;;;5.40;83.40;;;;;;5023660;28;20449;-67
2023/01/28 00:43:30;;;;;;;1.00;0.90;;;5.40;83.40;;;;;;5024281;28;20026;-66
2023/01/28 00:45:56;;;;;;;0.90;0.90;;;5.40;83.50;;;;;;5026401;28;20494;-66
2023/01/28 00:48:22;;;;;;;1.98;1.33;;;5.50;83.50;;;;;;5029183;28;20079;-67
2023/01/28 00:50:47;;;;;;;1.73;1.50;;;5.40;83.40;;;;;;5029014;28;20034;-67
2023/01/28 00:53:13;;;;;;;1.90;1.48;;;5.40;83.40;;;;;;5027749;28;20392;-66
2023/01/28 00:55:39;;;;;;;1.70;1.10;;;5.30;83.40;;;;;;5018009;28;20437;-66
2023/01/28 00:58:04;;;;;;;1.60;1.17;;;5.30;83.40;;;;;;5030489;28;20105;-68
2023/01/28 01:00:30;;;;;;;1.33;1.15;;;5.30;83.40;;;;;;5030429;28;20396;-66
2023/01/28 01:02:55;;;;;;;1.38;1.08;;;5.20;83.30;;;;;;5031532;28;20063;-68
2023/01/28 01:05:21;;;;;;;2.38;1.48;;;5.20;83.50;;;;;;5029430;28;20025;-68
2023/01/28 01:07:47;;;;;;;2.55;1.40;;;5.10;83.60;;;;;;5031196;28;20032;-68
2023/01/28 01:10:15;;;;;;;1.00;0.90;;;5.10;83.60;;;;;;5031139;28;20032;-67
2023/01/28 01:12:41;;;;;;;1.20;1.10;;;5.10;83.70;;;;;;5031130;28;20092;-67
2023/01/28 01:15:09;;;;;;;1.30;1.20;;;5.10;83.70;;;;;;5030679;28;20030;-68
2023/01/28 01:17:39;;;;;;;2.00;1.10;;;5.10;83.70;;;;;;5030183;28;20083;-67
2023/01/28 01:20:06;;;;;;;1.65;1.33;;;5.10;83.70;;;;;;5030752;28;20122;-67
2023/01/28 01:22:35;;;;;;;2.17;1.25;;;5.10;83.60;;;;;;5026989;28;20033;-67
2023/01/28 01:25:02;;;;;;;2.05;1.50;;;5.10;83.60;;;;;;5023013;28;20083;-67
2023/01/28 01:27:29;;;;;;;2.63;1.63;;;5.00;83.50;;;;;;5031183;28;20113;-67
2023/01/28 01:29:55;;;;;;;1.67;1.25;;;5.00;83.40;;;;;;5028575;28;20416;-66
2023/01/28 01:32:21;;;;;;;1.75;1.42;;;5.00;83.50;;;;;;5029630;28;20037;-68
2023/01/28 01:34:47;;;;;;;1.17;1.08;;;4.90;83.40;;;;;;5030905;28;20033;-66
2023/01/28 01:37:13;;;;;;;1.27;0.90;;;4.90;83.40;;;;;;5030732;28;20036;-66
2023/01/28 01:39:39;;;;;;;1.33;1.10;;;5.00;83.50;;;;;;5030875;28;20040;-67
2023/01/28 01:42:04;;;;;;;1.55;1.20;;;4.90;83.40;;;;;;5031133;28;20078;-67
2023/01/28 01:45:03;;;;;;;1.05;0.90;;;5.00;83.50;;;;;;5030625;28;20022;-66
2023/01/28 01:47:32;;;;;;;1.38;1.20;;;4.90;83.20;;;;;;5031111;28;20090;-68
2023/01/28 01:50:02;;;;;;;1.35;1.15;;;4.90;83.40;;;;;;5030696;28;20059;-67
2023/01/28 01:52:32;;;;;;;1.10;1.00;;;4.90;83.50;;;;;;5031037;28;20083;-67
2023/01/28 01:55:00;;;;;;;1.42;1.10;;;5.00;83.60;;;;;;5030077;28;20022;-68
2023/01/28 01:57:30;;;;;;;1.77;1.20;;;4.90;83.10;;;;;;5030969;28;20029;-67
2023/01/28 02:00:04;;;;;;;1.50;1.20;;;4.90;83.20;;;;;;5030238;28;20049;-67
2023/01/28 02:02:34;;;;;;;1.20;1.00;;;5.00;83.40;;;;;;5029863;28;20035;-67
2023/01/28 02:05:00;;;;;;;1.48;0.90;;;5.00;83.30;;;;;;5030606;28;20134;-68
2023/01/28 02:07:26;;;;;;;1.05;1.00;;;5.00;83.20;;;;;;5030601;28;20025;-67
2023/01/28 02:09:52;;;;;;;2.33;1.35;;;5.00;83.20;;;;;;5029721;28;20040;-68
2023/01/28 02:12:21;;;;;;;1.67;1.25;;;4.90;83.00;;;;;;5030873;28;20488;-67
2023/01/28 02:14:53;;;;;;;1.05;0.90;;;5.00;83.10;;;;;;5030298;28;20062;-65
2023/01/28 02:17:19;;;;;;;2.05;1.35;;;4.90;83.60;;;;;;5025885;28;20045;-67
2023/01/28 02:19:59;;;;;;;1.63;1.33;;;4.90;82.90;;;;;;5030728;28;20025;-65
2023/01/28 02:23:12;;;;;;;2.35;1.27;;;4.90;83.00;;;;;;5030165;28;20034;-67
2023/01/28 02:26:08;;;;;;;3.25;1.50;;;4.90;82.90;;;;;;5031140;28;20077;-67
2023/01/28 02:28:42;;;;;;;2.72;1.52;;;4.90;82.80;;;;;;5025937;28;20480;-67
2023/01/28 02:31:29;;;;;;;2.88;1.45;;;4.90;82.80;;;;;;5030290;28;20384;-66
2023/01/28 02:34:19;;;;;;;1.92;1.48;;;4.90;82.90;;;;;;5029824;28;20059;-67
2023/01/28 02:36:58;;;;;;;1.70;1.40;;;4.80;82.80;;;;;;5024637;28;20021;-67
2023/01/28 02:39:28;;;;;;;1.92;1.35;;;4.80;82.80;;;;;;5030142;28;20492;-65
2023/01/28 02:42:05;;;;;;;1.58;1.48;;;4.80;82.90;;;;;;5029475;28;20029;-66
2023/01/28 02:44:31;;;;;;;2.22;1.50;;;4.80;82.90;;;;;;5026755;28;20461;-68
2023/01/28 02:49:48;;;;;;;1.73;1.40;;;4.80;82.90;;;;;;5030128;28;20045;-66
2023/01/28 02:55:30;;;;;;;1.67;1.10;;;4.80;82.90;;;;;;5011087;28;20100;-67
2023/01/28 02:58:05;;;;;;;2.05;1.38;;;4.80;83.00;;;;;;5030378;28;20060;-67
2023/01/28 03:00:53;;;;;;;2.05;1.30;;;4.70;83.10;;;;;;5030211;28;21830;-66
2023/01/28 03:03:56;;;;;;;1.30;1.20;;;4.70;83.20;;;;;;5026578;28;20064;-66
2023/01/28 03:06:29;;;;;;;2.38;1.25;;;4.70;83.30;;;;;;5015657;28;20028;-67
2023/01/28 03:37:25;;;;;;;2.05;1.35;;;4.60;83.00;;;;;;5020727;28;20099;-65
2023/01/28 03:39:51;;;;;;;2.80;1.73;;;4.50;83.00;;;;;;5027646;28;20499;-66
2023/01/28 03:42:17;;;;;;;2.08;1.40;;;4.50;83.10;;;;;;5028202;28;20030;-66
2023/01/28 03:44:52;;;;;;;2.83;1.75;;;4.50;82.90;;;;;;5027270;28;20099;-67
2023/01/28 03:47:22;;;;;;;2.33;1.70;;;4.40;82.80;;;;;;5028742;28;20025;-67
2023/01/28 03:49:49;;;;;;;1.92;1.58;;;4.40;83.00;;;;;;5029027;28;20499;-67
2023/01/28 03:52:17;;;;;;;1.83;1.50;;;4.40;83.10;;;;;;5028863;28;20038;-67
2023/01/28 03:54:46;;;;;;;2.35;1.45;;;4.40;82.90;;;;;;5029089;28;20033;-67
2023/01/28 03:57:12;;;;;;;2.45;1.50;;;4.40;83.00;;;;;;5028659;28;20044;-65
2023/01/28 03:59:37;;;;;;;3.25;1.63;;;4.40;82.90;;;;;;5028708;28;20026;-66
2023/01/28 04:02:04;;;;;;;1.58;1.00;;;4.50;82.90;;;;;;5026876;28;20582;-67
2023/01/28 04:04:31;;;;;;;1.90;1.23;;;4.50;82.60;;;;;;5028339;28;20017;-66
2023/01/28 04:06:57;;;;;;;3.05;1.58;;;4.40;82.60;;;;;;5028638;28;20047;-67
2023/01/28 04:09:23;;;;;;;2.80;1.50;;;4.40;82.70;;;;;;5026724;28;20095;-65
2023/01/28 04:11:52;;;;;;;2.35;1.30;;;4.40;82.80;;;;;;5028533;28;20775;-65
2023/01/28 04:14:17;;;;;;;1.40;1.10;;;4.40;82.80;;;;;;5026444;28;20439;-65
2023/01/28 04:16:43;;;;;;;1.55;1.17;;;4.40;82.80;;;;;;5028478;28;20080;-65
2023/01/28 04:19:11;;;;;;;2.33;1.52;;;4.40;82.70;;;;;;5024671;28;20021;-67
2023/01/28 04:21:37;;;;;;;3.08;1.65;;;4.40;82.60;;;;;;5028676;28;20021;-65
2023/01/28 04:24:03;;;;;;;2.88;1.50;;;4.40;82.70;;;;;;5027789;28;20032;-66
2023/01/28 04:26:28;;;;;;;1.40;1.10;;;4.40;82.70;;;;;;5029012;28;20025;-66
2023/01/28 04:28:55;;;;;;;1.65;1.20;;;4.40;82.60;;;;;;5028103;28;20535;-67
2023/01/28 04:31:22;;;;;;;2.42;1.30;;;4.50;82.50;;;;;;5028808;28;20060;-67
2023/01/28 04:33:48;;;;;;;1.75;1.42;;;4.40;82.30;;;;;;5028147;28;20021;-67
2023/01/28 04:36:13;;;;;;;2.78;1.20;;;4.40;82.40;;;;;;5028355;28;20160;-66
2023/01/28 04:38:39;;;;;;;1.30;1.02;;;4.40;82.40;;;;;;5026782;28;20030;-67
2023/01/28 04:41:05;;;;;;;1.33;1.20;;;4.40;82.50;;;;;;5028107;28;20026;-68
2023/01/28 04:43:30;;;;;;;1.98;1.20;;;4.50;82.60;;;;;;5025993;28;20026;-68
2023/01/28 04:45:56;;;;;;;1.63;1.05;;;4.50;82.50;;;;;;5028715;28;20024;-68
2023/01/28 04:48:21;;;;;;;1.15;1.00;;;4.50;82.40;;;;;;5028005;28;20095;-68
2023/01/28 04:50:47;;;;;;;1.77;1.05;;;4.50;82.40;;;;;;5029629;28;20034;-68
2023/01/28 04:53:12;;;;;;;2.72;1.60;;;4.50;82.40;;;;;;5031700;28;20037;-67
2023/01/28 04:55:38;;;;;;;3.50;1.77;;;4.40;82.30;;;;;;5032182;28;20037;-67
2023/01/28 04:58:03;;;;;;;1.67;1.48;;;4.40;82.30;;;;;;5031273;28;20026;-68
2023/01/28 05:00:29;;;;;;;3.72;1.98;;;4.40;82.90;;;;;;5032091;28;20025;-67
2023/01/28 05:02:54;;;;;;;2.78;1.52;;;4.30;82.10;;;;;;5031478;28;20045;-68
2023/01/28 05:05:20;;;;;;;2.17;1.60;;;4.30;82.20;;;;;;5031178;28;20049;-67
2023/01/28 05:07:56;;;;;;;1.77;1.08;;;4.30;82.10;;;;;;5030502;28;20079;-68
2023/01/28 05:10:22;;;;;;;3.38;1.67;;;4.30;82.10;;;;;;5030963;28;20526;-67
2023/01/28 05:12:48;;;;;;;3.85;2.10;;;4.20;81.90;;;;;;5029424;28;20357;-67
2023/01/28 05:15:15;;;;;;;2.20;1.38;;;4.20;82.00;;;;;;5031584;28;20036;-68
2023/01/28 05:17:42;;;;;;;2.63;1.65;;;4.20;82.00;;;;;;5030936;28;20045;-68
2023/01/28 05:20:09;;;;;;;2.55;1.50;;;4.20;82.10;;;;;;5021513;28;20551;-68
2023/01/28 05:22:34;;;;;;;3.20;1.63;;;4.10;81.80;;;;;;5018151;28;20073;-69
2023/01/28 05:25:02;;;;;;;1.52;1.10;;;4.10;82.00;;;;;;5031042;28;20029;-68
2023/01/28 05:27:28;;;;;;;3.33;1.60;;;4.10;82.00;;;;;;5031313;28;20017;-68
2023/01/28 05:29:53;;;;;;;2.17;1.80;;;4.00;81.90;;;;;;5029500;28;20033;-68
2023/01/28 05:32:19;;;;;;;2.70;1.20;;;4.00;81.90;;;;;;5031287;28;20029;-67
2023/01/28 05:34:44;;;;;;;2.45;1.40;;;4.00;81.80;;;;;;5030607;28;20037;-68
2023/01/28 05:37:10;;;;;;;3.63;1.80;;;4.00;82.00;;;;;;5031432;28;20029;-68
2023/01/28 05:39:36;;;;;;;2.55;1.65;;;4.00;81.90;;;;;;5031676;28;20034;-69
2023/01/28 05:42:01;;;;;;;3.75;2.00;;;4.00;81.90;;;;;;5030734;28;20035;-67
2023/01/28 05:44:27;;;;;;;3.33;1.42;;;4.00;81.70;;;;;;5030547;28;20029;-69
2023/01/28 05:46:52;;;;;;;3.00;1.70;;;3.90;81.50;;;;;;5030875;28;20371;-68
2023/01/28 05:49:18;;;;;;;2.92;1.58;;;3.90;81.60;;;;;;5030655;28;20041;-68
2023/01/28 05:51:43;;;;;;;1.70;1.42;;;3.90;81.60;;;;;;5030736;28;20037;-67
2023/01/28 05:54:09;;;;;;;2.88;1.63;;;3.90;81.70;;;;;;5028237;28;20021;-67
2023/01/28 05:56:35;;;;;;;2.75;1.77;;;3.90;81.50;;;;;;5030388;28;20036;-66
2023/01/28 05:59:02;;;;;;;4.03;1.85;;;3.90;81.60;;;;;;5030588;28;20021;-67
2023/01/28 06:01:28;;;;;;;3.80;1.73;;;3.90;81.60;;;;;;5030633;28;20087;-68
2023/01/28 06:03:53;;;;;;;3.38;1.90;;;3.90;81.70;;;;;;5029590;28;20025;-68
2023/01/28 06:06:19;;;;;;;2.28;1.50;;;3.90;81.50;;;;;;5030942;28;20032;-67
2023/01/28 06:08:45;;;;;;;2.42;1.63;;;3.90;81.50;;;;;;5030354;28;20018;-68
2023/01/28 06:11:10;;;;;;;3.67;1.70;;;3.90;81.50;;;;;;5030075;28;20120;-68
2023/01/28 06:13:36;;;;;;;3.22;1.60;;;3.90;81.40;;;;;;5029688;28;20029;-68
2023/01/28 06:16:02;;;;;;;2.22;1.40;;;3.90;81.30;;;;;;5029689;28;20029;-69
2023/01/28 06:18:28;;;;;;;2.28;1.42;;;4.00;81.40;;;;;;5030188;28;20033;-68
2023/01/28 06:20:53;;;;;;;3.28;1.80;;;4.00;81.50;;;;;;5029488;28;20095;-68
2023/01/28 06:23:19;;;;;;;2.08;1.45;;;4.00;81.40;;;;;;5030152;28;20080;-68
2023/01/28 06:25:45;;;;;;;2.25;1.55;;;4.00;81.30;;;;;;5030535;28;20025;-67
2023/01/28 06:28:10;;;;;;;2.33;1.50;;;4.00;81.30;;;;;;5029895;28;20014;-67
2023/01/28 06:30:36;;;;;;;2.35;1.58;;;4.00;81.20;;;;;;5030505;28;20034;-67
2023/01/28 06:33:01;;;;;;;2.75;1.25;;;3.90;81.10;;;;;;5029639;28;20025;-67
2023/01/28 06:35:27;;;;;;;3.70;1.88;;;3.90;81.20;;;;;;5029716;28;20033;-67
2023/01/28 06:37:53;;;;;;;2.35;1.40;;;3.80;81.30;;;;;;5030225;28;20026;-68
2023/01/28 06:40:21;;;;;;;2.63;1.58;;;3.80;81.50;;;;;;5026612;28;20030;-67
2023/01/28 06:42:47;;;;;;;3.15;1.67;;;3.80;81.60;;;;;;5030522;28;20024;-67
2023/01/28 06:45:13;;;;;;;4.55;2.22;;;3.70;80.80;;;;;;5027883;28;20026;-68
2023/01/28 06:47:38;;;;;;;4.40;2.50;;;3.60;80.50;;;;;;5029865;28;20107;-67
2023/01/28 06:50:05;;;;;;;3.67;2.38;;;3.60;81.20;;;;;;5029665;28;20028;-67
2023/01/28 06:52:30;;;;;;;5.47;2.55;;;3.60;80.70;;;;;;5029544;28;20037;-67
2023/01/28 06:54:56;;;;;;;3.50;1.90;;;3.60;81.20;;;;;;5029140;28;20369;-67
2023/01/28 06:57:21;;;;;;;2.47;1.40;;;3.60;81.40;;;;;;5029279;28;20121;-67
2023/01/28 06:59:47;;;;;;;1.95;1.50;;;3.70;81.50;;;;;;5029896;28;20029;-67
2023/01/28 07:02:12;;;;;;;3.13;1.70;;;3.80;81.40;;;;;;5029648;28;20033;-67
2023/01/28 07:04:38;;;;;;;2.35;1.60;;;3.80;81.30;;;;;;5029410;28;20515;-67
2023/01/28 07:07:04;;;;;;;1.10;0.95;;;3.80;81.20;;;;;;5029401;28;20104;-67
2023/01/28 07:09:29;;;;;;;1.15;1.05;;;3.90;81.20;;;;;;5026095;28;20034;-67
2023/01/28 07:11:55;;;;;;;1.58;1.20;;;3.90;81.10;;;;;;5027875;28;20034;-67
2023/01/28 07:14:20;;;;;;;2.97;1.40;;;3.90;81.10;;;;;;5029560;28;20029;-67
2023/01/28 07:16:46;;;;;;;2.97;1.60;;;3.80;80.70;;;;;;5032768;28;20129;-67
2023/01/28 07:19:11;;;;;;;3.78;1.98;;;3.80;80.70;;;;;;5029339;28;20123;-67
2023/01/28 07:21:37;;;;;;;2.95;1.95;;;3.80;80.90;;;;;;5033563;28;20067;-68
2023/01/28 07:24:04;;;;;;;2.45;1.50;;;3.80;81.00;;;;;;5028666;28;20022;-67
2023/01/28 07:26:30;;;;;;;2.03;1.52;;;3.80;80.90;;;;;;5030588;28;20093;-67
2023/01/28 07:28:56;;;;;;;2.05;1.35;;;3.80;80.90;;;;;;5025389;28;20084;-68
2023/01/28 07:31:22;;;;;;;2.50;1.77;;;3.80;80.90;;;;;;5028974;28;20045;-67
2023/01/28 07:33:47;;;;;;;2.03;1.42;;;3.80;80.90;;;;;;5028990;28;20029;-67
2023/01/28 07:36:13;;;;;;;2.50;1.35;;;3.80;81.00;;;;;;5028679;28;20362;-67
2023/01/28 07:38:38;;;;;;;2.30;1.80;;;3.90;80.80;;;;;;5028781;28;20764;-67
2023/01/28 07:41:04;;;;;;;3.15;1.50;;;3.90;80.80;;;;;;5024199;28;20108;-67
2023/01/28 07:43:30;;;;;;;3.60;1.73;;;3.80;80.80;;;;;;5025648;28;20029;-67
2023/01/28 07:45:59;;;;;;;3.17;1.65;;;3.80;80.80;;;;;;5022640;28;20349;-67
2023/01/28 07:48:24;;;;;;;1.90;1.30;;;3.80;80.80;;;;;;5026616;28;20390;-67
2023/01/28 07:50:50;;;;;;;1.65;1.40;;;3.80;80.80;;;;;;5020755;28;20041;-67
2023/01/28 07:53:16;;;;;;;1.48;1.30;;;3.90;80.80;;;;;;5020870;28;20026;-67
2023/01/28 07:55:42;;;;;;;1.70;1.23;;;3.90;80.80;;;;;;5026552;28;20037;-67
2023/01/28 07:58:10;;;;;;;4.97;2.13;;;3.90;80.80;;;;;;5026087;28;20021;-68
2023/01/28 08:00:37;;;;;;;4.28;2.47;;;3.90;80.80;;;;;;5019281;28;20028;-67
2023/01/28 08:03:11;;;;;;;2.00;1.40;;;3.90;80.90;;;;;;5027809;28;20017;-67
2023/01/28 08:05:40;;;;;;;3.90;1.73;;;3.90;80.90;;;;;;5027949;28;20034;-67
2023/01/28 08:08:07;;;;;;;3.45;1.75;;;3.90;80.90;;;;;;5032223;28;20036;-67
2023/01/28 08:10:33;;;;;;;4.95;2.05;;;4.00;80.90;;;;;;5025559;28;20044;-67
2023/01/28 08:12:59;;;;;;;3.80;2.33;;;4.00;80.90;;;;;;5023770;28;21650;-64
2023/01/28 08:15:25;;;;;;;4.43;1.90;;;3.90;80.80;;;;;;5027518;28;20025;-66
2023/01/28 08:17:53;;;;;;;3.13;1.90;;;3.90;80.80;;;;;;5028330;28;20038;-67
2023/01/28 08:20:19;;;;;;;2.72;1.60;;;3.90;80.70;;;;;;5025213;28;20488;-67
2023/01/28 08:22:44;;;;;;;3.47;2.08;;;3.90;80.70;;;;;;5027305;28;20022;-68
2023/01/28 08:25:10;;;;;;;2.85;1.60;;;3.90;80.70;;;;;;5023691;28;20021;-67
2023/01/28 08:27:35;;;;;;;4.88;2.35;;;3.90;80.70;;;;;;5029971;28;20024;-67
2023/01/28 08:30:01;;;;;;;3.65;1.90;;;3.80;80.80;;;;;;5027307;28;20029;-67
2023/01/28 08:32:28;;;;;;;3.40;2.05;;;3.90;80.90;;;;;;5031093;28;20028;-67
2023/01/28 08:34:54;;;;;;;5.65;2.40;;;3.90;80.90;;;;;;5030525;28;20026;-67
2023/01/28 08:37:19;;;;;;;5.30;2.80;;;3.80;80.60;;;;;;5031700;28;20051;-67
2023/01/28 08:39:45;;;;;;;7.25;3.78;;;3.80;80.70;;;;;;5027567;28;20052;-67
2023/01/28 08:42:11;;;;;;;7.75;3.75;;;3.70;81.20;;;;;;5028817;28;20112;-67
2023/01/28 08:44:36;;;;;;;4.50;2.60;;;3.70;80.80;;;;;;5037250;28;20103;-67
2023/01/28 08:47:02;;;;;;;3.55;2.10;;;3.70;80.80;;;;;;5031109;28;20024;-67
2023/01/28 08:49:27;;;;;;;4.55;2.35;;;3.70;80.80;;;;;;5033915;28;20454;-67
2023/01/28 08:51:54;;;;;;;2.65;1.60;;;3.70;80.90;;;;;;5044065;28;20025;-67
2023/01/28 08:54:20;;;;;;;2.72;1.75;;;3.70;80.80;;;;;;5031234;28;20029;-67
2023/01/28 08:56:47;;;;;;;3.70;2.13;;;3.70;80.80;;;;;;5030830;28;20108;-67
2023/01/28 08:59:14;;;;;;;4.40;2.17;;;3.80;80.70;;;;;;5028688;28;20112;-67
2023/01/28 09:01:39;;;;;;;2.65;1.70;;;3.80;80.90;;;;;;5031252;28;20064;-67
2023/01/28 09:04:05;;;;;;;2.60;1.20;;;3.80;80.90;;;;;;5029677;28;20057;-68
2023/01/28 09:06:31;;;;;;;2.95;1.50;;;3.80;80.90;;;;;;5036054;28;20087;-67
2023/01/28 09:09:00;;;;;;;6.15;2.45;;;3.80;80.30;;;;;;5038548;28;20060;-69
2023/01/28 09:11:27;;;;;;;7.38;3.40;;;3.70;80.40;;;;;;5033066;28;20025;-67
2023/01/28 09:13:53;;;;;;;5.30;2.45;;;3.80;80.60;;;;;;5036527;28;20052;-67
2023/01/28 09:16:19;;;;;;;4.18;2.30;;;3.80;80.70;;;;;;5030909;28;20057;-67
2023/01/28 09:18:44;;;;;;;3.70;2.10;;;3.80;80.60;;;;;;5031880;28;20060;-68
2023/01/28 09:21:10;;;;;;;4.88;2.67;;;3.80;80.20;;;;;;5035050;28;20565;-69
2023/01/28 09:23:37;;;;;;;3.03;1.80;;;3.80;80.20;;;;;;5034018;28;20032;-67
2023/01/28 09:26:04;;;;;;;3.72;2.08;;;3.80;80.30;;;;;;5029396;28;20029;-67
2023/01/28 09:28:30;;;;;;;3.92;2.60;;;3.80;80.20;;;;;;5031590;28;20021;-67
2023/01/28 09:31:08;;;;;;;3.65;2.10;;;3.80;80.10;;;;;;5026795;28;20033;-67
2023/01/28 09:33:35;;;;;;;4.05;2.33;;;3.70;80.10;;;;;;5026623;28;20059;-67
2023/01/28 09:36:02;;;;;;;2.90;1.70;;;3.80;80.30;;;;;;5028582;28;20044;-68
2023/01/28 09:38:31;;;;;;;2.78;1.80;;;3.80;80.40;;;;;;5033993;28;20022;-68
2023/01/28 09:40:57;;;;;;;2.67;1.40;;;3.80;80.30;;;;;;5029522;28;20053;-68
2023/01/28 09:43:45;;;;;;;2.83;1.70;;;3.90;80.30;;;;;;5029502;28;20037;-68
2023/01/28 09:46:13;;;;;;;2.58;1.67;;;3.90;80.20;;;;;;5030376;28;20028;-65
2023/01/28 09:48:47;;;;;;;1.70;1.30;;;4.00;80.10;;;;;;5031667;28;20025;-66
2023/01/28 09:51:51;;;;;;;2.35;1.70;;;4.10;80.10;;;;;;5029044;28;20041;-67
2023/01/28 09:54:28;;;;;;;1.45;1.25;;;4.10;80.10;;;;;;5018672;28;20077;-67
2023/01/28 09:57:04;;;;;;;2.13;1.38;;;4.20;80.20;;;;;;5032341;28;20056;-67
2023/01/28 09:59:33;;;;;;;2.03;1.30;;;4.20;80.00;;;;;;5031443;28;20029;-67
2023/01/28 10:02:16;;;;;;;1.60;1.45;;;4.30;79.90;;;;;;5030853;28;20053;-67
2023/01/28 10:05:07;;;;;;;1.75;1.20;;;4.40;79.80;;;;;;5035299;28;20418;-67
2023/01/28 10:07:35;;;;;;;1.60;1.20;;;4.40;79.40;;;;;;5030733;28;20037;-67
2023/01/28 10:10:15;;;;;;;2.47;1.35;;;4.40;79.40;;;;;;5032306;28;20057;-67
2023/01/28 10:13:10;;;;;;;2.10;1.50;;;4.50;79.40;;;;;;5032106;28;20056;-67
2023/01/28 10:15:54;;;;;;;5.15;2.60;;;4.50;79.20;;;;;;5029713;28;20014;-66
2023/01/28 10:18:39;;;;;;;2.90;1.80;;;4.30;79.00;;;;;;5031387;28;20443;-66
2023/01/28 10:21:14;;;;;;;2.70;1.55;;;4.40;79.40;;;;;;5028676;28;20116;-67
2023/01/28 10:23:44;;;;;;;2.53;1.40;;;4.50;79.50;;;;;;5033653;28;20557;-67
2023/01/28 10:26:21;;;;;;;1.88;1.40;;;4.70;79.40;;;;;;5031686;28;20389;-68
2023/01/28 10:28:55;;;;;;;1.52;1.35;;;4.80;79.10;;;;;;5033713;28;20540;-66
2023/01/28 10:31:22;;;;;;;1.60;1.30;;;4.90;79.00;;;;;;5031183;28;20030;-67
2023/01/28 10:33:47;;;;;;;1.25;1.00;;;4.90;78.70;;;;;;5031952;28;20492;-67
2023/01/28 10:36:14;;;;;;;2.25;1.50;;;5.00;78.70;;;;;;5031548;28;20040;-67
2023/01/28 10:38:39;;;;;;;1.90;1.33;;;5.00;78.60;;;;;;5026084;28;20039;-67
2023/01/28 10:41:05;;;;;;;2.10;1.40;;;5.10;78.70;;;;;;5026444;28;20033;-67
2023/01/28 10:43:37;;;;;;;2.70;1.75;;;5.10;78.40;;;;;;5028581;28;20148;-67
2023/01/28 10:46:20;;;;;;;2.50;1.50;;;5.10;78.20;;;;;;5036777;28;20052;-67
2023/01/28 10:49:13;;;;;;;3.45;2.10;;;5.20;78.50;;;;;;5018959;28;20082;-67
2023/01/28 10:51:40;;;;;;;2.70;1.83;;;5.20;78.20;;;;;;5024230;28;20577;-67
2023/01/28 10:54:20;;;;;;;2.25;1.42;;;5.20;78.20;;;;;;5033201;28;20120;-67
2023/01/28 10:56:48;;;;;;;2.95;1.98;;;5.30;78.30;;;;;;5045005;28;20113;-67
2023/01/28 10:59:27;;;;;;;3.72;2.10;;;5.30;77.60;;;;;;5033830;28;20040;-67
2023/01/28 11:01:53;;;;;;;3.13;1.98;;;5.10;77.10;;;;;;5041880;28;20492;-67
2023/01/28 11:04:31;;;;;;;3.05;1.80;;;5.00;77.50;;;;;;5033012;28;20680;-67
2023/01/28 11:07:17;;;;;;;3.20;1.80;;;5.10;78.00;;;;;;5039184;28;20017;-67
2023/01/28 11:09:48;;;;;;;2.70;1.65;;;5.20;77.90;;;;;;5027902;28;20033;-67
2023/01/28 11:12:21;;;;;;;4.00;2.05;;;5.30;77.70;;;;;;5027360;28;20034;-67
2023/01/28 11:14:54;;;;;;;3.70;2.05;;;5.20;76.30;;;;;;5020623;28;20048;-67
2023/01/28 11:17:24;;;;;;;3.20;1.60;;;5.10;77.10;;;;;;5022382;28;20511;-67
2023/01/28 11:19:54;;;;;;;2.10;1.50;;;5.10;77.50;;;;;;5023234;28;20042;-67
2023/01/28 11:22:35;;;;;;;1.90;1.33;;;5.30;77.50;;;;;;5025159;28;20034;-67
2023/01/28 11:25:03;;;;;;;2.22;1.40;;;5.30;77.40;;;;;;5025721;28;20498;-67
2023/01/28 11:27:30;;;;;;;2.95;1.70;;;5.30;77.30;;;;;;5028746;28;20084;-67
2023/01/28 11:30:03;;;;;;;3.20;1.95;;;5.20;76.50;;;;;;5029113;28;20025;-67
2023/01/28 11:32:30;;;;;;;3.33;2.05;;;5.10;77.40;;;;;;5027630;28;20127;-67
2023/01/28 11:34:56;;;;;;;4.20;1.80;;;4.90;75.70;;;;;;5026857;28;20100;-67
2023/01/28 11:37:24;;;;;;;5.82;3.03;;;4.90;77.20;;;;;;5029513;28;20034;-67
2023/01/28 11:40:19;;;;;;;5.97;3.25;;;4.80;77.20;;;;;;5028830;28;20032;-67
2023/01/28 11:42:49;;;;;;;3.40;1.90;;;4.80;77.50;;;;;;5023502;28;20091;-67
2023/01/28 11:45:17;;;;;;;4.00;1.80;;;4.90;77.60;;;;;;5029987;28;20029;-67
2023/01/28 11:48:17;;;;;;;2.85;1.67;;;4.90;77.50;;;;;;5026658;28;20018;-67
2023/01/28 11:50:55;;;;;;;3.50;2.20;;;4.90;76.30;;;;;;5011125;28;20033;-67
2023/01/28 11:53:34;;;;;;;3.15;2.10;;;4.80;76.70;;;;;;5027761;28;20029;-67
2023/01/28 11:56:22;;;;;;;2.92;1.70;;;4.90;77.50;;;;;;5025982;28;20029;-67
2023/01/28 11:59:07;;;;;;;3.70;1.95;;;5.10;77.60;;;;;;5028817;28;20622;-67
2023/01/28 12:01:51;;;;;;;3.97;2.30;;;5.10;76.80;;;;;;5025179;28;20030;-67
2023/01/28 12:04:16;;;;;;;3.08;1.73;;;5.20;77.00;;;;;;5032797;28;20396;-66
2023/01/28 12:07:03;;;;;;;3.85;2.08;;;5.30;76.80;;;;;;5033454;28;20083;-66
2023/01/28 12:09:50;;;;;;;2.55;1.50;;;5.30;76.80;;;;;;5031253;28;20025;-66
2023/01/28 12:12:28;;;;;;;2.63;1.40;;;5.40;77.00;;;;;;5032262;28;20033;-66
2023/01/28 12:15:08;;;;;;;1.42;1.10;;;5.40;76.70;;;;;;5025735;28;20033;-67
2023/01/28 12:17:51;;;;;;;1.42;1.23;;;5.60;76.80;;;;;;5031434;28;20041;-66
2023/01/28 12:20:23;;;;;;;1.63;1.10;;;5.60;76.70;;;;;;5033485;28;20070;-66
2023/01/28 12:23:01;;;;;;;2.78;1.60;;;6.30;76.50;;;;;;5033147;28;20022;-66
2023/01/28 12:25:35;;;;;;;3.22;1.80;;;6.60;73.70;;;;;;5037665;28;20080;-67
2023/01/28 12:28:07;;;;;;;3.00;1.88;;;6.40;74.20;;;;;;5030449;28;20029;-66
2023/01/28 12:30:38;;;;;;;2.17;1.58;;;6.50;74.50;;;;;;5032347;28;20037;-66
2023/01/28 12:33:54;;;;;;;3.35;1.65;;;6.50;74.70;;;;;;5033320;28;20021;-66
2023/01/28 12:36:23;;;;;;;2.97;1.70;;;6.40;74.40;;;;;;5032592;28;20117;-66
2023/01/28 12:39:00;;;;;;;2.65;1.80;;;6.30;75.00;;;;;;5024057;28;20018;-66
2023/01/28 12:41:31;;;;;;;3.15;1.95;;;6.50;75.50;;;;;;5025958;28;20111;-66
2023/01/28 12:44:06;;;;;;;3.92;2.00;;;6.50;75.30;;;;;;5025857;28;20029;-66
2023/01/28 12:46:36;;;;;;;2.85;1.73;;;6.50;75.50;;;;;;5026315;28;20026;-66
2023/01/28 12:49:08;;;;;;;1.90;1.23;;;6.60;75.40;;;;;;5024059;28;20392;-67
2023/01/28 12:51:47;;;;;;;2.90;1.88;;;6.70;75.50;;;;;;5028486;28;20045;-66
2023/01/28 12:54:31;;;;;;;2.50;1.58;;;6.70;75.40;;;;;;5024230;28;20033;-67
2023/01/28 12:56:58;;;;;;;3.80;2.60;;;6.70;75.30;;;;;;5024520;28;20434;-66
2023/01/28 12:59:42;;;;;;;3.75;2.15;;;6.70;75.60;;;;;;5026383;28;20476;-67
2023/01/28 13:02:10;;;;;;;2.90;1.40;;;6.70;75.70;;;;;;5027558;28;20109;-67
2023/01/28 13:05:10;;;;;;;2.38;1.60;;;6.60;75.30;;;;;;5026246;28;20025;-67
2023/01/28 13:08:00;;;;;;;3.38;2.13;;;6.40;74.90;;;;;;5022397;28;20104;-67
2023/01/28 13:10:35;;;;;;;3.78;2.00;;;6.40;75.80;;;;;;5024898;28;20025;-67
2023/01/28 13:13:03;;;;;;;2.33;1.50;;;6.60;75.70;;;;;;5024684;28;20104;-67
2023/01/28 13:15:29;;;;;;;2.33;1.33;;;6.70;75.50;;;;;;5024623;28;20018;-67
2023/01/28 13:18:03;;;;;;;3.50;1.70;;;6.70;75.40;;;;;;5021277;28;20435;-67
2023/01/28 13:20:45;;;;;;;2.15;1.45;;;6.80;75.20;;;;;;5023467;28;20097;-67
2023/01/28 13:23:34;;;;;;;4.10;2.83;;;6.80;75.00;;;;;;5023832;28;20026;-67
2023/01/28 13:26:17;;;;;;;8.25;3.70;;;7.00;74.30;;;;;;5018113;28;20498;-67
2023/01/28 13:28:44;;;;;;;5.18;2.92;;;6.90;74.10;;;;;;5021151;28;20026;-66
2023/01/28 13:31:16;;;;;;;6.35;3.33;;;7.70;73.10;;;;;;5026998;28;20436;-67
2023/01/28 13:33:47;;;;;;;6.72;3.42;;;8.40;71.40;;;;;;5032789;28;20053;-67
2023/01/28 13:36:18;;;;;;;8.57;3.83;;;8.40;69.60;;;;;;5033030;28;20502;-67
2023/01/28 13:38:45;;;;;;;6.28;3.47;;;8.30;68.70;;;;;;5026936;28;20642;-67
2023/01/28 13:41:10;;;;;;;5.32;2.83;;;8.00;68.60;;;;;;5031781;28;20159;-66
2023/01/28 13:43:39;;;;;;;4.65;2.50;;;7.90;69.50;;;;;;5027988;28;20105;-66
2023/01/28 13:46:13;;;;;;;6.78;3.30;;;7.70;70.00;;;;;;5030287;28;20100;-67
2023/01/28 13:48:50;;;;;;;5.15;2.75;;;7.40;69.80;;;;;;5030360;28;20163;-67